Time;durP1;ratioP1;P1;durP2;ratioP2;P2;SDS_P1;SDS_P2;PMS_P1;PMS_P2;Temp;Humidity;BMP_temperature;BMP_pressure;BME280_temperature;BME280_humidity;BME280_pressure;Samples;Min_cycle;Max_cycle;Signal;HPM_P1;HPM_P2
2023/01/05 00:00:54;;;;;;;28.15;17.25;;;;;;;7.15;100.00;62733.13;4972884;28;20227;-81
2023/01/05 00:03:21;;;;;;;28.35;16.95;;;;;;;7.14;100.00;62730.09;4973801;28;20232;-81
2023/01/05 00:05:48;;;;;;;32.20;18.02;;;;;;;7.26;100.00;62750.06;4971200;28;20244;-80
2023/01/05 00:08:16;;;;;;;31.90;19.00;;;;;;;7.12;100.00;62735.63;4972667;28;20201;-80
2023/01/05 00:24:31;;;;;;;34.45;19.48;;;;;;;6.53;100.00;62672.75;4965586;28;20196;-80
2023/01/05 00:26:58;;;;;;;42.95;19.17;;;;;;;6.65;100.00;62682.06;4991922;28;20564;-81
2023/01/05 00:29:25;;;;;;;36.45;20.70;;;;;;;6.73;100.00;62690.31;4988430;28;20214;-81
2023/01/05 00:31:51;;;;;;;36.08;19.17;;;;;;;6.83;100.00;62701.13;4989741;28;20220;-80
2023/01/05 00:34:20;;;;;;;35.60;20.95;;;;;;;6.86;100.00;62703.72;4993142;28;20200;-81
2023/01/05 00:36:47;;;;;;;39.08;19.73;;;;;;;7.01;100.00;62719.72;4993747;28;20231;-80
2023/01/05 00:39:14;;;;;;;30.00;18.48;;;;;;;7.06;100.00;62723.84;4988526;28;20288;-81
2023/01/05 00:41:43;;;;;;;37.13;19.30;;;;;;;7.04;100.00;62724.81;4991937;28;20226;-80
2023/01/05 00:44:10;;;;;;;29.55;18.58;;;;;;;6.98;100.00;62718.63;4990597;28;20247;-80
2023/01/05 00:46:37;;;;;;;30.60;18.58;;;;;;;6.97;100.00;62718.13;4990259;28;20264;-81
2023/01/05 00:49:04;;;;;;;36.25;19.35;;;;;;;7.02;100.00;62718.22;4991228;28;20196;-81
2023/01/05 00:51:31;;;;;;;30.52;18.58;;;;;;;7.09;100.00;62726.94;4990759;28;20226;-81
2023/01/05 00:53:58;;;;;;;37.88;20.05;;;;;;;7.19;100.00;62735.25;4986153;28;20212;-80
2023/01/05 00:56:25;;;;;;;37.22;19.17;;;;;;;7.11;100.00;62734.06;4981669;28;20315;-80
2023/01/05 00:58:55;;;;;;;40.03;19.95;;;;;;;7.04;100.00;62724.81;4989629;28;20208;-80
2023/01/05 01:01:22;;;;;;;35.40;18.88;;;;;;;7.04;100.00;62722.28;4978222;28;20225;-81
2023/01/05 01:03:49;;;;;;;31.30;19.55;;;;;;;7.16;100.00;62736.69;4982798;28;20216;-81
2023/01/05 01:06:17;;;;;;;36.50;17.77;;;;;;;7.17;100.00;62740.78;4983427;28;20529;-80
2023/01/05 01:08:44;;;;;;;28.05;17.73;;;;;;;7.24;100.00;62748.00;4971682;28;20197;-79
2023/01/05 01:11:10;;;;;;;30.73;18.10;;;;;;;7.22;100.00;62740.88;4986871;28;20223;-80
2023/01/05 01:13:38;;;;;;;32.35;18.40;;;;;;;7.31;100.00;62750.16;4988492;28;20223;-80
2023/01/05 01:16:12;;;;;;;32.53;18.45;;;;;;;7.35;100.00;62756.31;4975891;28;20236;-80
2023/01/05 01:18:39;;;;;;;34.38;18.70;;;;;;;7.30;100.00;62751.66;4976407;28;20196;-80
2023/01/05 01:21:06;;;;;;;31.63;18.33;;;;;;;7.38;100.00;62761.94;4988983;28;20451;-80
2023/01/05 01:23:34;;;;;;;33.67;17.52;;;;;;;7.43;100.00;62767.59;4991225;28;20232;-81
2023/01/05 01:26:05;;;;;;;24.27;16.02;;;;;;;7.46;100.00;62760.03;4988040;28;20544;-81
2023/01/05 01:28:32;;;;;;;29.13;17.20;;;;;;;7.39;100.00;62757.88;4987748;28;20214;-80
2023/01/05 01:30:59;;;;;;;30.38;17.30;;;;;;;7.35;100.00;62754.28;4988335;28;20216;-80
2023/01/05 01:33:28;;;;;;;28.52;15.95;;;;;;;7.33;100.00;62754.22;4989124;28;20449;-81
2023/01/05 01:35:55;;;;;;;29.48;16.88;;;;;;;7.07;100.00;62727.41;4970646;28;20232;-79
2023/01/05 01:38:23;;;;;;;30.42;17.60;;;;;;;6.95;100.00;62716.03;4987084;28;20259;-80
2023/01/05 01:40:50;;;;;;;27.58;16.20;;;;;;;6.85;100.00;62703.19;4977730;28;20240;-80
2023/01/05 01:43:20;;;;;;;25.85;14.82;;;;;;;6.87;100.00;62710.31;4988253;28;20247;-80
2023/01/05 01:45:47;;;;;;;30.13;14.55;;;;;;;6.75;100.00;62690.38;4988797;28;20227;-80
2023/01/05 01:48:18;;;;;;;24.50;15.70;;;;;;;6.56;100.00;62672.78;4980399;28;20212;-80
2023/01/05 01:50:51;;;;;;;28.75;15.38;;;;;;;6.63;100.00;62685.06;4980257;28;20251;-81
2023/01/05 01:53:23;;;;;;;24.63;15.10;;;;;;;6.75;100.00;62689.84;4984278;28;20203;-82
2023/01/05 01:55:52;;;;;;;24.27;14.85;;;;;;;6.86;100.00;62703.72;4982786;28;20246;-80
2023/01/05 01:58:23;;;;;;;23.38;14.70;;;;;;;6.88;100.00;62711.38;4987405;28;20246;-81
2023/01/05 02:00:51;;;;;;;27.45;15.70;;;;;;;6.85;100.00;62705.72;4988460;28;20571;-82
2023/01/05 02:03:18;;;;;;;24.73;14.73;;;;;;;6.86;100.00;62706.78;4989732;28;20203;-81
2023/01/05 02:05:46;;;;;;;28.48;15.65;;;;;;;6.90;100.00;62710.38;4969701;28;20307;-81
2023/01/05 02:08:24;;;;;;;24.20;16.02;;;;;;;6.91;100.00;62706.34;4975521;28;20215;-81
2023/01/05 02:11:00;;;;;;;23.65;15.63;;;;;;;6.91;100.00;62711.94;4986694;28;20235;-81
2023/01/05 02:13:43;;;;;;;27.40;16.70;;;;;;;7.06;100.00;62721.31;4986951;28;20544;-80
2023/01/05 02:16:19;;;;;;;30.45;17.50;;;;;;;6.98;100.00;62716.09;4970677;29;20220;-81
2023/01/05 02:19:24;;;;;;;26.90;16.15;;;;;;;6.82;100.00;62704.66;4986588;28;20211;-80
2023/01/05 02:22:01;;;;;;;29.67;16.23;;;;;;;6.72;100.00;62692.34;4953491;28;20259;-80
2023/01/05 02:24:56;;;;;;;26.90;16.35;;;;;;;6.72;100.00;62694.34;4985990;28;20324;-80
2023/01/05 02:27:36;;;;;;;28.67;17.08;;;;;;;6.66;100.00;62683.09;4985887;28;20226;-81
2023/01/05 02:30:35;;;;;;;32.10;17.02;;;;;;;6.54;100.00;62673.75;4988242;28;20219;-80
2023/01/05 02:33:15;;;;;;;30.77;17.13;;;;;;;6.56;100.00;62677.84;4986337;28;20196;-79
2023/01/05 02:35:50;;;;;;;32.75;18.65;;;;;;;6.62;100.00;62682.03;4980031;28;20224;-80
2023/01/05 02:38:23;;;;;;;31.70;17.80;;;;;;;6.52;100.00;62669.16;4967436;28;20532;-79
2023/01/05 02:40:56;;;;;;;28.88;17.55;;;;;;;6.37;100.00;62653.69;4976408;28;20452;-81
2023/01/05 02:43:24;;;;;;;31.63;18.67;;;;;;;6.36;100.00;62652.16;4974917;28;20214;-81
2023/01/05 02:45:51;;;;;;;32.40;18.20;;;;;;;6.31;100.00;62647.00;4987933;28;20239;-81
2023/01/05 02:48:19;;;;;;;34.55;18.77;;;;;;;6.02;100.00;62617.63;4980765;28;20200;-79
2023/01/05 02:50:50;;;;;;;29.77;17.33;;;;;;;6.13;100.00;62628.44;4967938;28;20228;-79
2023/01/05 02:53:21;;;;;;;31.83;18.38;;;;;;;6.30;100.00;62649.00;4979292;28;20489;-82
2023/01/05 02:55:54;;;;;;;36.55;19.38;;;;;;;6.53;100.00;62670.22;4987631;28;20401;-81
2023/01/05 02:58:26;;;;;;;34.72;18.00;;;;;;;6.41;100.00;62657.31;4987142;28;20227;-82
2023/01/05 03:00:57;;;;;;;29.38;17.40;;;;;;;6.47;100.00;62668.56;4985677;28;20235;-81
2023/01/05 03:03:31;;;;;;;30.85;17.48;;;;;;;6.71;100.00;62688.25;4986132;28;20204;-81
2023/01/05 03:06:03;;;;;;;27.75;17.85;;;;;;;6.84;100.00;62706.72;4982314;28;20537;-80
2023/01/05 03:08:35;;;;;;;30.13;16.85;;;;;;;6.80;100.00;62703.09;4984148;28;20192;-80
2023/01/05 03:13:55;;;;;;;33.20;17.25;;;;;;;6.44;100.00;62660.91;4989179;28;20248;-81
2023/01/05 03:16:28;;;;;;;33.38;17.50;;;;;;;6.42;100.00;62656.31;4989508;28;20224;-80
2023/01/05 03:35:42;;;;;;;31.73;16.35;;;;;;;6.30;100.00;62651.53;4971435;28;20521;-81
2023/01/05 03:38:14;;;;;;;23.60;15.60;;;;;;;6.39;100.00;62660.31;4973895;28;20224;-81
2023/01/05 03:40:43;;;;;;;29.50;16.98;;;;;;;6.40;100.00;62661.34;4991746;28;20275;-80
2023/01/05 03:43:11;;;;;;;34.80;17.67;;;;;;;6.60;100.00;62685.00;4990266;28;20205;-80
2023/01/05 03:45:42;;;;;;;26.85;16.10;;;;;;;6.51;100.00;62667.63;4992678;28;20275;-81
2023/01/05 03:48:09;;;;;;;33.83;16.35;;;;;;;6.52;100.00;62674.22;4989375;28;20448;-81
2023/01/05 03:50:38;;;;;;;29.55;16.88;;;;;;;6.46;100.00;62665.00;4990199;28;20200;-80
2023/01/05 03:53:06;;;;;;;28.52;16.58;;;;;;;6.37;100.00;62653.69;4990731;28;20192;-80
2023/01/05 03:55:34;;;;;;;27.05;16.08;;;;;;;6.50;100.00;62674.19;4990444;28;20200;-81
2023/01/05 03:58:01;;;;;;;32.78;18.58;;;;;;;6.54;100.00;62673.75;4975217;28;20263;-81
2023/01/05 04:00:28;;;;;;;30.35;17.33;;;;;;;6.58;100.00;62677.91;4974836;28;20224;-81
2023/01/05 04:02:55;;;;;;;29.23;17.58;;;;;;;6.51;100.00;62670.66;4991451;28;20196;-81
2023/01/05 04:05:22;;;;;;;30.80;17.75;;;;;;;6.59;100.00;62676.38;4990465;28;20516;-80
2023/01/05 04:07:50;;;;;;;30.67;17.60;;;;;;;6.66;100.00;62685.63;4977983;28;20220;-81
2023/01/05 04:10:17;;;;;;;32.10;18.30;;;;;;;6.56;100.00;62670.25;4981308;28;20204;-81
2023/01/05 04:12:47;;;;;;;29.40;17.05;;;;;;;6.52;100.00;62673.72;4991058;28;20228;-81
2023/01/05 04:15:13;;;;;;;31.02;17.45;;;;;;;6.61;100.00;62683.00;4981012;28;20215;-80
2023/01/05 04:17:40;;;;;;;29.75;16.65;;;;;;;6.75;100.00;62692.38;4975191;28;20311;-81
2023/01/05 04:20:08;;;;;;;29.45;16.00;;;;;;;6.80;100.00;62697.53;4989276;28;20224;-79
2023/01/05 04:22:35;;;;;;;28.90;16.83;;;;;;;6.67;100.00;62686.66;4989702;28;20247;-81
2023/01/05 04:25:04;;;;;;;29.27;17.02;;;;;;;6.80;100.00;62697.53;4990555;28;20196;-79
2023/01/05 04:27:31;;;;;;;27.60;16.73;;;;;;;6.88;100.00;62708.84;4975800;28;20407;-81
2023/01/05 04:29:57;;;;;;;29.10;17.25;;;;;;;6.91;100.00;62711.41;4980373;28;20248;-81
2023/01/05 04:32:27;;;;;;;26.33;16.33;;;;;;;6.88;100.00;62710.84;4988497;28;20264;-80
2023/01/05 04:34:54;;;;;;;27.23;16.15;;;;;;;6.73;100.00;62690.31;4985079;28;20466;-82
2023/01/05 04:37:22;;;;;;;26.00;16.92;;;;;;;6.44;100.00;62660.91;4979535;28;20255;-83
2023/01/05 04:39:49;;;;;;;29.52;16.65;;;;;;;6.53;100.00;62672.22;4990853;28;20200;-79
2023/01/05 04:42:17;;;;;;;28.98;15.93;;;;;;;6.45;100.00;62669.56;4981327;28;20273;-80
2023/01/05 04:44:44;;;;;;;24.50;15.73;;;;;;;6.40;100.00;62661.84;4984891;28;20199;-81
2023/01/05 04:47:12;;;;;;;24.83;15.05;;;;;;;6.50;100.00;62671.66;4981773;28;20394;-80
2023/01/05 04:49:39;;;;;;;26.50;15.10;;;;;;;6.39;100.00;62653.25;4981622;28;20204;-82
2023/01/05 04:52:06;;;;;;;23.60;14.90;;;;;;;6.57;100.00;62673.81;4991226;28;20223;-81
2023/01/05 04:54:33;;;;;;;27.33;14.45;;;;;;;6.64;100.00;62681.03;4989611;28;20204;-80
2023/01/05 04:57:00;;;;;;;23.90;14.68;;;;;;;6.57;100.00;62676.88;4973846;28;20286;-80
2023/01/05 04:59:29;;;;;;;27.23;16.02;;;;;;;6.61;100.00;62680.97;4986879;28;20227;-81
2023/01/05 05:01:55;;;;;;;27.33;15.25;;;;;;;6.64;100.00;62679.00;4988557;28;20222;-80
2023/01/05 05:04:23;;;;;;;25.00;15.52;;;;;;;6.75;100.00;62694.91;4973244;28;20200;-81
2023/01/05 05:06:49;;;;;;;25.85;15.93;;;;;;;6.73;100.00;62690.31;4990779;28;20291;-80
2023/01/05 05:09:17;;;;;;;28.50;16.10;;;;;;;6.80;100.00;62698.03;4985456;28;20497;-81
2023/01/05 05:11:44;;;;;;;25.90;15.82;;;;;;;6.77;100.00;62694.44;4980220;28;20224;-80
2023/01/05 05:14:11;;;;;;;28.45;16.58;;;;;;;6.70;100.00;62689.75;4982826;28;20204;-82
2023/01/05 05:16:39;;;;;;;26.25;17.42;;;;;;;6.59;100.00;62680.94;4980919;28;20219;-80
2023/01/05 05:19:06;;;;;;;28.30;16.88;;;;;;;6.61;100.00;62678.44;4979405;28;20426;-80
2023/01/05 05:21:33;;;;;;;30.50;17.02;;;;;;;6.58;100.00;62677.91;4977907;28;20221;-81
2023/01/05 05:24:00;;;;;;;27.65;15.95;;;;;;;6.50;100.00;62667.13;4988879;28;20206;-81
2023/01/05 05:26:27;;;;;;;27.52;16.50;;;;;;;6.39;100.00;62660.31;4987029;28;20243;-79
2023/01/05 05:28:54;;;;;;;32.80;17.20;;;;;;;6.16;100.00;62631.56;4989122;28;20202;-80
2023/01/05 05:31:21;;;;;;;32.08;18.30;;;;;;;6.37;100.00;62655.72;4982142;28;20231;-80
2023/01/05 05:33:50;;;;;;;33.35;17.85;;;;;;;6.43;100.00;62661.91;4989960;28;20204;-78
2023/01/05 05:36:17;;;;;;;37.55;17.77;;;;;;;6.48;100.00;62672.13;4981117;28;20292;-80
2023/01/05 05:38:44;;;;;;;32.50;17.42;;;;;;;6.45;100.00;62664.50;4972524;28;20229;-80
2023/01/05 05:41:11;;;;;;;26.92;16.65;;;;;;;6.54;100.00;62668.69;4976018;28;20216;-81
2023/01/05 05:43:38;;;;;;;33.13;16.02;;;;;;;6.63;100.00;62682.53;4977997;28;20200;-81
2023/01/05 05:46:06;;;;;;;33.90;17.00;;;;;;;6.51;100.00;62670.66;4981609;28;20473;-82
2023/01/05 05:48:33;;;;;;;27.10;16.45;;;;;;;6.33;100.00;62652.13;4987145;28;20259;-79
2023/01/05 05:51:01;;;;;;;28.05;17.58;;;;;;;6.25;100.00;62643.84;4972529;28;20225;-82
2023/01/05 05:53:28;;;;;;;30.35;16.08;;;;;;;6.10;100.00;62625.88;4982285;28;20378;-79
2023/01/05 05:55:55;;;;;;;28.55;15.10;;;;;;;6.01;100.00;62616.06;4975854;28;20232;-80
2023/01/05 05:58:22;;;;;;;27.08;15.30;;;;;;;5.89;100.00;62606.75;4986908;28;20241;-80
2023/01/05 06:00:49;;;;;;;26.48;14.68;;;;;;;5.79;100.00;62599.47;4988446;28;20220;-80
2023/01/05 06:03:16;;;;;;;29.50;14.20;;;;;;;5.73;100.00;62585.19;4985645;28;20196;-80
2023/01/05 06:05:44;;;;;;;29.10;14.75;;;;;;;5.59;100.00;62578.84;4990339;28;20287;-78
2023/01/05 06:08:12;;;;;;;25.45;14.32;;;;;;;5.44;100.00;62560.38;4989336;28;20239;-79
2023/01/05 06:10:40;;;;;;;26.92;13.85;;;;;;;5.31;100.00;62550.03;4987991;28;20201;-81
2023/01/05 06:13:07;;;;;;;23.77;13.57;;;;;;;5.20;100.00;62538.16;4986032;28;20201;-81
2023/01/05 06:15:33;;;;;;;26.55;14.85;;;;;;;5.12;100.00;62522.38;4974875;28;20268;-80
2023/01/05 06:18:02;;;;;;;28.58;16.10;;;;;;;5.08;100.00;62521.28;4985466;28;20234;-80
2023/01/05 06:20:29;;;;;;;24.20;14.68;;;;;;;5.04;100.00;62516.66;4983721;28;20251;-78
2023/01/05 06:22:56;;;;;;;28.30;16.92;;;;;;;4.83;100.00;62495.56;4987891;28;20200;-80
2023/01/05 06:25:25;;;;;;;32.22;16.67;;;;;;;4.87;100.00;62502.19;4986123;28;20203;-81
2023/01/05 06:27:52;;;;;;;32.97;17.90;;;;;;;4.78;100.00;62490.38;4983739;28;20280;-81
2023/01/05 06:30:23;;;;;;;36.97;17.60;;;;;;;4.66;100.00;62478.56;4989443;28;20473;-81
2023/01/05 06:32:51;;;;;;;33.42;18.08;;;;;;;4.89;100.00;62506.25;4986988;28;20474;-81
2023/01/05 06:35:18;;;;;;;38.03;20.23;;;;;;;4.82;100.00;62497.03;4986707;28;20208;-80
2023/01/05 06:37:45;;;;;;;38.08;19.13;;;;;;;4.90;100.00;62505.25;4986026;28;20259;-82
2023/01/05 06:40:12;;;;;;;38.78;19.77;;;;;;;5.00;100.00;62510.00;4971373;28;20196;-81
2023/01/05 06:42:41;;;;;;;36.17;19.35;;;;;;;4.97;100.00;62506.91;4988676;28;20226;-81
2023/01/05 06:45:10;;;;;;;30.45;17.42;;;;;;;5.08;100.00;62525.81;4986174;28;20219;-81
2023/01/05 06:47:37;;;;;;;28.55;16.85;;;;;;;5.06;100.00;62521.75;4986696;28;20312;-80
2023/01/05 06:50:05;;;;;;;32.97;16.83;;;;;;;5.07;100.00;62520.25;4984206;28;20401;-80
2023/01/05 06:52:35;;;;;;;26.23;15.35;;;;;;;5.07;100.00;62522.25;4987147;28;20379;-80
2023/01/05 06:55:02;;;;;;;25.02;15.05;;;;;;;5.09;100.00;62526.84;4986954;28;20210;-80
2023/01/05 06:57:29;;;;;;;24.38;13.13;;;;;;;5.16;100.00;62531.53;4984720;28;20234;-79
2023/01/05 06:59:58;;;;;;;23.35;15.07;;;;;;;5.15;100.00;62528.50;4985190;28;20236;-80
2023/01/05 07:02:25;;;;;;;26.15;14.80;;;;;;;5.27;100.00;62540.31;4987608;28;20472;-80
2023/01/05 07:04:51;;;;;;;25.42;14.45;;;;;;;5.29;100.00;62542.91;4987124;28;20200;-80
2023/01/05 07:07:18;;;;;;;25.90;15.07;;;;;;;5.34;100.00;62547.53;4987473;28;20224;-80
2023/01/05 07:09:48;;;;;;;31.30;18.30;;;;;;;5.35;100.00;62551.09;4992886;28;20196;-80
2023/01/05 07:12:15;;;;;;;31.65;18.35;;;;;;;5.53;100.00;62567.13;4991089;28;20220;-82
2023/01/05 07:14:42;;;;;;;34.00;19.75;;;;;;;5.73;100.00;62590.75;4987607;28;20200;-80
2023/01/05 07:17:12;;;;;;;35.97;21.25;;;;;;;5.96;100.00;62610.91;4981578;28;20472;-79
2023/01/05 07:19:39;;;;;;;36.15;20.65;;;;;;;6.12;100.00;62627.41;4991778;28;20238;-81
2023/01/05 07:22:09;;;;;;;39.30;21.10;;;;;;;6.26;100.00;62641.84;4988395;28;20224;-83
2023/01/05 07:24:37;;;;;;;28.02;19.73;;;;;;;6.79;100.00;62693.97;4990182;28;20256;-82
2023/01/05 07:27:04;;;;;;;37.90;20.88;;;;;;;6.93;100.00;62711.47;4990886;28;20251;-82
2023/01/05 07:29:31;;;;;;;37.60;20.90;;;;;;;7.25;100.00;62741.41;4990697;28;20247;-82
2023/01/05 07:31:58;;;;;;;31.30;19.63;;;;;;;7.43;100.00;62762.53;4993156;28;20220;-81
2023/01/05 07:34:26;;;;;;;33.58;18.10;;;;;;;7.34;100.00;62757.78;4990292;28;20200;-80
2023/01/05 07:36:53;;;;;;;31.73;18.23;;;;;;;7.39;100.00;62757.88;4987137;28;20224;-80
2023/01/05 07:39:20;;;;;;;28.65;17.52;;;;;;;7.41;100.00;62763.00;4975854;28;20249;-81
2023/01/05 07:41:48;;;;;;;24.92;16.45;;;;;;;7.68;100.00;62795.94;4980937;28;20690;-81
2023/01/05 07:44:18;;;;;;;24.65;14.50;;;;;;;7.64;100.00;62784.22;4976560;28;20192;-80
2023/01/05 07:46:45;;;;;;;22.50;13.70;;;;;;;7.76;100.00;62799.13;4971980;28;20251;-81
2023/01/05 07:49:12;;;;;;;22.05;14.65;;;;;;;7.87;100.00;62807.44;4980140;28;20216;-80
2023/01/05 07:51:41;;;;;;;26.55;15.68;;;;;;;7.88;100.00;62813.53;4993581;28;20291;-79
2023/01/05 07:54:08;;;;;;;24.88;14.52;;;;;;;7.82;100.00;62804.81;4978655;28;20204;-79
2023/01/05 07:56:35;;;;;;;21.30;13.50;;;;;;;7.96;100.00;62819.25;4978688;28;20280;-79
2023/01/05 07:59:01;;;;;;;20.25;12.32;;;;;;;7.92;100.00;62810.06;4991090;28;20231;-79
2023/01/05 08:01:29;;;;;;;19.55;12.15;;;;;;;7.98;100.00;62816.78;4991483;28;20220;-80
2023/01/05 08:03:55;;;;;;;17.73;11.77;;;;;;;8.01;100.00;62826.97;4994448;28;20228;-80
2023/01/05 08:06:24;;;;;;;17.35;11.77;;;;;;;7.87;100.00;62807.94;4980746;28;20236;-79
2023/01/05 08:08:52;;;;;;;20.13;13.02;;;;;;;7.93;100.00;62818.69;4970193;28;20402;-79
2023/01/05 08:11:20;;;;;;;19.20;13.70;;;;;;;7.80;100.00;62800.22;4982022;28;20232;-78
2023/01/05 08:14:01;;;;;;;21.98;13.40;;;;;;;7.80;100.00;62798.19;4989309;28;20255;-79
2023/01/05 08:16:28;;;;;;;24.80;14.32;;;;;;;7.94;100.00;62817.19;4989847;28;20232;-78
2023/01/05 08:18:56;;;;;;;27.20;13.95;;;;;;;8.03;100.00;62829.03;4975805;28;20258;-78
2023/01/05 08:21:23;;;;;;;22.80;14.45;;;;;;;8.10;100.00;62834.25;4986989;28;20246;-78
2023/01/05 08:23:52;;;;;;;19.83;12.80;;;;;;;7.98;100.00;62821.84;4989500;28;20192;-80
2023/01/05 08:26:23;;;;;;;24.00;13.90;;;;;;;8.02;100.00;62825.97;4985639;28;20230;-80
2023/01/05 08:28:51;;;;;;;23.55;14.18;;;;;;;8.02;100.00;62823.44;4984891;28;20498;-80
2023/01/05 08:31:22;;;;;;;21.10;14.18;;;;;;;7.92;100.00;62818.19;4987381;28;20224;-80
2023/01/05 08:33:49;;;;;;;22.70;14.07;;;;;;;8.07;100.00;62831.16;5000308;28;20204;-81
2023/01/05 08:36:19;;;;;;;22.30;14.57;;;;;;;8.14;100.00;62835.81;4984351;28;20227;-81
2023/01/05 08:38:48;;;;;;;25.00;15.85;;;;;;;8.08;100.00;62834.19;5004422;28;20239;-80
2023/01/05 08:41:21;;;;;;;21.52;13.98;;;;;;;7.93;100.00;62816.16;4981757;28;20292;-80
2023/01/05 08:43:56;;;;;;;20.92;13.40;;;;;;;7.85;100.00;62805.88;4978095;28;20203;-79
2023/01/05 08:46:25;;;;;;;25.52;16.13;;;;;;;7.91;100.00;62814.09;4983592;28;20251;-80
2023/01/05 08:48:54;;;;;;;23.88;14.82;;;;;;;7.85;100.00;62810.44;4979967;28;20208;-80
2023/01/05 08:51:21;;;;;;;21.73;13.73;;;;;;;8.31;100.00;62852.38;4978141;28;20224;-81
2023/01/05 08:53:48;;;;;;;22.05;14.35;;;;;;;8.62;100.00;62881.84;4992174;28;20196;-83
2023/01/05 08:56:16;;;;;;;23.90;14.40;;;;;;;8.81;100.00;62906.56;4993046;28;20220;-81
2023/01/05 08:58:44;;;;;;;24.48;14.68;;;;;;;8.97;100.00;62923.63;4989256;28;20242;-80
2023/01/05 09:01:15;;;;;;;31.20;17.00;;;;;;;9.28;100.00;62958.19;4984941;28;20219;-83
2023/01/05 09:03:45;;;;;;;27.48;15.63;;;;;;;9.53;100.00;62980.47;4977455;28;20201;-81
2023/01/05 09:06:15;;;;;;;27.10;16.00;;;;;;;9.06;100.00;62927.34;4981438;28;20571;-81
2023/01/05 09:08:49;;;;;;;21.10;14.55;;;;;;;9.09;100.00;62938.06;4999279;28;20210;-81
2023/01/05 09:11:21;;;;;;;25.98;15.70;;;;;;;8.99;100.00;62925.69;4993503;28;20215;-81
2023/01/05 09:13:50;;;;;;;25.48;13.98;;;;;;;8.99;100.00;62925.19;4994813;28;20200;-81
2023/01/05 09:16:24;;;;;;;24.35;14.40;;;;;;;8.94;100.00;62920.50;4989625;28;20247;-81
2023/01/05 09:18:51;;;;;;;23.38;14.55;;;;;;;8.93;100.00;62919.50;4991539;28;20238;-82
2023/01/05 09:21:22;;;;;;;19.90;14.18;;;;;;;9.00;100.00;62928.75;4992811;28;20251;-81
2023/01/05 09:23:49;;;;;;;25.60;14.68;;;;;;;9.25;100.00;62954.56;4991124;28;20525;-82
2023/01/05 09:26:18;;;;;;;19.85;13.70;;;;;;;9.55;98.28;62983.06;4976672;28;20231;-80
2023/01/05 09:28:46;;;;;;;19.95;13.20;;;;;;;9.43;97.45;62970.66;4985212;28;20207;-81
2023/01/05 09:31:15;;;;;;;23.02;14.18;;;;;;;9.81;97.30;63011.97;4991896;28;20228;-80
2023/01/05 09:33:45;;;;;;;20.65;13.82;;;;;;;10.02;96.06;63031.69;4992248;28;20223;-82
2023/01/05 09:36:13;;;;;;;23.05;14.00;;;;;;;9.97;93.27;63026.50;4992655;28;20283;-82
2023/01/05 09:38:40;;;;;;;21.92;14.45;;;;;;;9.90;92.79;63019.28;4991443;28;20200;-81
2023/01/05 09:41:16;;;;;;;23.40;14.30;;;;;;;9.99;92.70;63028.06;4993783;28;20242;-81
2023/01/05 09:43:46;;;;;;;25.63;15.80;;;;;;;9.90;93.66;63019.28;4991121;28;20203;-81
2023/01/05 09:46:21;;;;;;;25.63;16.65;;;;;;;10.09;93.95;63038.94;4991897;28;20264;-81
2023/01/05 09:48:56;;;;;;;24.58;16.20;;;;;;;10.15;93.49;63047.69;4990793;28;20211;-81
2023/01/05 09:51:23;;;;;;;25.75;15.95;;;;;;;10.21;93.51;63059.00;4991142;28;20676;-80
2023/01/05 09:53:51;;;;;;;25.33;15.88;;;;;;;10.31;92.50;63061.19;4978434;28;20440;-80
2023/01/05 09:56:27;;;;;;;25.52;14.88;;;;;;;10.42;91.25;63073.06;4974431;28;20217;-81
2023/01/05 09:59:00;;;;;;;20.75;14.85;;;;;;;10.53;90.69;63080.91;4970817;29;20248;-81
2023/01/05 10:01:27;;;;;;;23.60;15.60;;;;;;;10.55;90.89;63083.47;4982802;28;20291;-80
2023/01/05 10:04:00;;;;;;;26.50;16.88;;;;;;;10.48;88.76;63076.22;4990802;28;20212;-80
2023/01/05 10:06:33;;;;;;;24.67;15.27;;;;;;;10.44;88.90;63077.16;4990872;28;20225;-82
2023/01/05 10:09:02;;;;;;;22.30;16.05;;;;;;;10.26;89.86;63056.00;4996581;28;20195;-81
2023/01/05 10:14:28;;;;;;;20.67;13.13;;;;;;;10.25;88.66;63049.91;5006058;28;20191;-81
2023/01/05 10:16:55;;;;;;;21.95;14.50;;;;;;;10.25;88.23;63057.53;4990446;28;20279;-80
2023/01/05 10:19:24;;;;;;;21.25;13.82;;;;;;;9.55;89.87;62985.59;4989835;28;20231;-80
2023/01/05 10:22:02;;;;;;;18.35;12.60;;;;;;;9.83;89.99;63011.50;4990519;28;20223;-79
2023/01/05 10:24:44;;;;;;;22.92;13.88;;;;;;;9.85;89.60;63016.13;4984802;28;20192;-81
2023/01/05 10:27:19;;;;;;;23.05;14.48;;;;;;;9.60;90.78;62985.16;4990412;28;20228;-83
2023/01/05 10:29:48;;;;;;;21.23;14.15;;;;;;;9.64;91.08;62992.38;4989385;28;20391;-80
2023/01/05 10:32:24;;;;;;;26.00;15.13;;;;;;;9.55;91.93;62983.06;4989028;28;20258;-81
2023/01/05 10:35:01;;;;;;;23.45;13.20;;;;;;;9.79;92.31;63010.44;4988805;28;20199;-81
2023/01/05 10:37:55;;;;;;;22.38;14.00;;;;;;;9.88;89.11;63017.19;4992334;28;20321;-81
2023/01/05 10:40:32;;;;;;;17.95;11.68;;;;;;;9.80;87.77;63011.44;4980231;28;20236;-79
2023/01/05 10:43:29;;;;;;;19.63;11.77;;;;;;;10.01;86.39;63033.19;4979108;28;20231;-81
2023/01/05 10:45:56;;;;;;;19.05;11.95;;;;;;;9.77;86.33;63010.91;4988862;28;20323;-81
2023/01/05 10:48:29;;;;;;;17.70;12.68;;;;;;;9.97;86.24;63029.06;4989562;28;20199;-80
2023/01/05 10:50:58;;;;;;;20.67;13.00;;;;;;;10.12;86.33;63039.50;4988839;28;20219;-80
2023/01/05 10:53:36;;;;;;;21.30;12.70;;;;;;;10.28;84.91;63058.09;4976997;28;20200;-81
2023/01/05 10:56:06;;;;;;;24.25;14.65;;;;;;;10.16;85.56;63045.66;4980618;28;20255;-80
2023/01/05 10:58:38;;;;;;;22.60;12.55;;;;;;;10.32;84.45;63060.19;4987335;28;20212;-80
2023/01/05 11:01:15;;;;;;;20.75;13.13;;;;;;;10.64;83.97;63095.34;4986578;28;20236;-81
2023/01/05 11:03:44;;;;;;;23.85;13.60;;;;;;;10.80;83.02;63111.38;4976940;28;20196;-81
2023/01/05 11:06:23;;;;;;;19.92;12.82;;;;;;;10.99;81.70;63131.06;5006470;23;20230;-80
2023/01/05 11:08:55;;;;;;;18.45;12.30;;;;;;;11.02;80.62;63136.72;5010375;28;20211;-82
2023/01/05 11:11:24;;;;;;;22.35;14.65;;;;;;;10.97;80.60;63126.44;5007673;28;20560;-81
2023/01/05 11:13:56;;;;;;;20.48;13.10;;;;;;;11.03;78.29;63135.72;5005627;28;20227;-81
2023/01/05 11:16:26;;;;;;;21.20;13.85;;;;;;;11.19;78.56;63146.66;5007635;28;20262;-79
2023/01/05 11:18:56;;;;;;;20.30;13.98;;;;;;;11.37;76.76;63170.41;5007868;28;20206;-80
2023/01/05 11:21:27;;;;;;;21.55;12.82;;;;;;;11.18;76.31;63153.28;5000659;28;20242;-81
2023/01/05 11:23:57;;;;;;;23.27;14.13;;;;;;;11.05;76.69;63137.78;4989283;28;20529;-82
2023/01/05 11:26:30;;;;;;;20.02;12.95;;;;;;;11.11;76.89;63146.53;4997697;28;20283;-80
2023/01/05 11:29:22;;;;;;;20.45;12.85;;;;;;;11.20;77.31;63152.81;5006779;28;20223;-81
2023/01/05 11:31:53;;;;;;;22.88;13.65;;;;;;;11.40;76.97;63174.03;5003056;28;20227;-82
2023/01/05 11:34:41;;;;;;;23.80;14.25;;;;;;;11.71;76.18;63205.66;5011584;28;20274;-81
2023/01/05 11:37:24;;;;;;;22.55;12.05;;;;;;;11.53;73.89;63184.94;4999368;28;20223;-80
2023/01/05 11:39:54;;;;;;;21.50;12.80;;;;;;;11.39;72.81;63175.00;5001370;28;20230;-78
2023/01/05 11:42:31;;;;;;;16.95;12.88;;;;;;;11.39;73.27;63172.47;5009554;28;20222;-80
2023/01/05 11:44:59;;;;;;;19.70;11.80;;;;;;;11.23;72.55;63158.97;5005951;28;20207;-81
2023/01/05 11:47:30;;;;;;;19.05;11.93;;;;;;;11.23;73.86;63153.88;5010591;28;20219;-80
2023/01/05 11:50:06;;;;;;;18.27;10.75;;;;;;;11.62;72.81;63199.38;5010905;28;20204;-81
2023/01/05 11:52:37;;;;;;;16.92;11.57;;;;;;;11.57;71.02;63189.09;5009071;28;20218;-80
2023/01/05 11:55:26;;;;;;;20.13;12.07;;;;;;;12.04;69.76;63239.84;5013382;28;20191;-80
2023/01/05 11:57:55;;;;;;;16.58;12.02;;;;;;;12.27;68.47;63268.78;5013820;28;20203;-80
2023/01/05 12:00:27;;;;;;;19.73;12.70;;;;;;;12.51;66.96;63288.56;5012903;28;20219;-80
2023/01/05 12:03:20;;;;;;;18.20;11.65;;;;;;;12.65;66.00;63303.06;5014990;28;20227;-81
2023/01/05 12:05:51;;;;;;;18.52;12.48;;;;;;;12.78;65.11;63324.22;5023800;28;20225;-79